sensor_id;sensor_type;location;lat;lon;timestamp;P1;durP1;ratioP1;P2;durP2;ratioP2
2896;SDS011;1458;49.728;9.228;2022-09-27T00:01:30;0.20;;;0.20;;
2896;SDS011;1458;49.728;9.228;2022-09-27T00:03:58;0.20;;;0.20;;
2896;SDS011;1458;49.728;9.228;2022-09-27T00:06:28;0.20;;;0.20;;
2896;SDS011;1458;49.728;9.228;2022-09-27T00:11:29;0.20;;;0.20;;
2896;SDS011;1458;49.728;9.228;2022-09-27T00:14:00;0.20;;;0.20;;
2896;SDS011;1458;49.728;9.228;2022-09-27T00:16:29;0.20;;;0.20;;
2896;SDS011;1458;49.728;9.228;2022-09-27T00:18:59;0.20;;;0.20;;
2896;SDS011;1458;49.728;9.228;2022-09-27T00:21:30;0.20;;;0.20;;
2896;SDS011;1458;49.728;9.228;2022-09-27T00:23:58;0.20;;;0.20;;
2896;SDS011;1458;49.728;9.228;2022-09-27T00:26:26;0.20;;;0.20;;
2896;SDS011;1458;49.728;9.228;2022-09-27T00:28:54;0.20;;;0.20;;
2896;SDS011;1458;49.728;9.228;2022-09-27T00:31:23;0.20;;;0.20;;
2896;SDS011;1458;49.728;9.228;2022-09-27T00:33:56;0.20;;;0.20;;
2896;SDS011;1458;49.728;9.228;2022-09-27T00:36:26;0.20;;;0.20;;
2896;SDS011;1458;49.728;9.228;2022-09-27T00:38:57;0.20;;;0.20;;
2896;SDS011;1458;49.728;9.228;2022-09-27T00:41:26;0.20;;;0.20;;
2896;SDS011;1458;49.728;9.228;2022-09-27T00:43:57;0.27;;;0.27;;
2896;SDS011;1458;49.728;9.228;2022-09-27T00:46:29;0.20;;;0.20;;
2896;SDS011;1458;49.728;9.228;2022-09-27T00:49:04;0.27;;;0.27;;
2896;SDS011;1458;49.728;9.228;2022-09-27T00:51:37;0.20;;;0.20;;
2896;SDS011;1458;49.728;9.228;2022-09-27T00:54:08;0.20;;;0.20;;
2896;SDS011;1458;49.728;9.228;2022-09-27T00:56:39;0.20;;;0.20;;
2896;SDS011;1458;49.728;9.228;2022-09-27T00:59:11;0.20;;;0.20;;
2896;SDS011;1458;49.728;9.228;2022-09-27T01:01:44;0.20;;;0.20;;
2896;SDS011;1458;49.728;9.228;2022-09-27T01:04:13;0.37;;;0.37;;
2896;SDS011;1458;49.728;9.228;2022-09-27T01:06:46;0.20;;;0.20;;
2896;SDS011;1458;49.728;9.228;2022-09-27T01:09:18;0.20;;;0.20;;
2896;SDS011;1458;49.728;9.228;2022-09-27T01:11:47;0.20;;;0.20;;
2896;SDS011;1458;49.728;9.228;2022-09-27T01:14:34;0.20;;;0.20;;
2896;SDS011;1458;49.728;9.228;2022-09-27T01:17:19;0.20;;;0.20;;
2896;SDS011;1458;49.728;9.228;2022-09-27T01:20:10;0.20;;;0.20;;
2896;SDS011;1458;49.728;9.228;2022-09-27T01:22:59;0.20;;;0.20;;
2896;SDS011;1458;49.728;9.228;2022-09-27T01:25:57;0.20;;;0.20;;
2896;SDS011;1458;49.728;9.228;2022-09-27T01:28:43;0.20;;;0.20;;
2896;SDS011;1458;49.728;9.228;2022-09-27T01:31:25;0.20;;;0.20;;
2896;SDS011;1458;49.728;9.228;2022-09-27T01:34:00;0.20;;;0.20;;
2896;SDS011;1458;49.728;9.228;2022-09-27T01:36:36;0.20;;;0.20;;
2896;SDS011;1458;49.728;9.228;2022-09-27T01:39:15;0.20;;;0.20;;
2896;SDS011;1458;49.728;9.228;2022-09-27T01:42:17;0.20;;;0.20;;
2896;SDS011;1458;49.728;9.228;2022-09-27T01:44:57;0.20;;;0.20;;
2896;SDS011;1458;49.728;9.228;2022-09-27T01:47:42;0.20;;;0.20;;
2896;SDS011;1458;49.728;9.228;2022-09-27T01:50:46;0.20;;;0.20;;
2896;SDS011;1458;49.728;9.228;2022-09-27T01:53:20;0.20;;;0.20;;
2896;SDS011;1458;49.728;9.228;2022-09-27T01:56:29;0.20;;;0.20;;
2896;SDS011;1458;49.728;9.228;2022-09-27T01:59:06;0.20;;;0.20;;
2896;SDS011;1458;49.728;9.228;2022-09-27T02:01:42;0.23;;;0.23;;
2896;SDS011;1458;49.728;9.228;2022-09-27T02:04:18;0.30;;;0.30;;
2896;SDS011;1458;49.728;9.228;2022-09-27T02:07:09;0.27;;;0.27;;
2896;SDS011;1458;49.728;9.228;2022-09-27T02:09:44;0.20;;;0.20;;
2896;SDS011;1458;49.728;9.228;2022-09-27T02:12:21;0.20;;;0.20;;
2896;SDS011;1458;49.728;9.228;2022-09-27T02:14:55;0.20;;;0.20;;
2896;SDS011;1458;49.728;9.228;2022-09-27T02:17:33;0.20;;;0.20;;
2896;SDS011;1458;49.728;9.228;2022-09-27T02:20:12;0.20;;;0.20;;
2896;SDS011;1458;49.728;9.228;2022-09-27T02:22:52;0.20;;;0.20;;
2896;SDS011;1458;49.728;9.228;2022-09-27T02:25:35;0.30;;;0.30;;
2896;SDS011;1458;49.728;9.228;2022-09-27T02:28:12;0.20;;;0.20;;
2896;SDS011;1458;49.728;9.228;2022-09-27T02:30:48;0.30;;;0.30;;
2896;SDS011;1458;49.728;9.228;2022-09-27T02:33:23;0.20;;;0.20;;
2896;SDS011;1458;49.728;9.228;2022-09-27T02:35:58;0.20;;;0.20;;
2896;SDS011;1458;49.728;9.228;2022-09-27T02:38:27;0.20;;;0.20;;
2896;SDS011;1458;49.728;9.228;2022-09-27T02:40:57;0.20;;;0.20;;
2896;SDS011;1458;49.728;9.228;2022-09-27T02:43:25;0.20;;;0.20;;
2896;SDS011;1458;49.728;9.228;2022-09-27T02:46:03;0.20;;;0.20;;
2896;SDS011;1458;49.728;9.228;2022-09-27T02:48:47;0.23;;;0.23;;
2896;SDS011;1458;49.728;9.228;2022-09-27T02:51:30;0.20;;;0.20;;
2896;SDS011;1458;49.728;9.228;2022-09-27T02:57:23;0.20;;;0.20;;
2896;SDS011;1458;49.728;9.228;2022-09-27T03:00:18;0.20;;;0.20;;
2896;SDS011;1458;49.728;9.228;2022-09-27T03:02:54;0.20;;;0.20;;
2896;SDS011;1458;49.728;9.228;2022-09-27T03:05:36;0.20;;;0.20;;
2896;SDS011;1458;49.728;9.228;2022-09-27T03:08:10;0.20;;;0.20;;
2896;SDS011;1458;49.728;9.228;2022-09-27T03:10:38;0.20;;;0.20;;
2896;SDS011;1458;49.728;9.228;2022-09-27T03:13:06;0.20;;;0.20;;
2896;SDS011;1458;49.728;9.228;2022-09-27T03:15:34;0.20;;;0.20;;
2896;SDS011;1458;49.728;9.228;2022-09-27T03:18:02;0.20;;;0.20;;
2896;SDS011;1458;49.728;9.228;2022-09-27T03:20:49;0.20;;;0.20;;
2896;SDS011;1458;49.728;9.228;2022-09-27T03:23:21;0.20;;;0.20;;
2896;SDS011;1458;49.728;9.228;2022-09-27T03:25:49;0.20;;;0.20;;
2896;SDS011;1458;49.728;9.228;2022-09-27T03:28:18;0.20;;;0.20;;
2896;SDS011;1458;49.728;9.228;2022-09-27T03:30:47;0.30;;;0.30;;
2896;SDS011;1458;49.728;9.228;2022-09-27T03:33:40;0.20;;;0.20;;
2896;SDS011;1458;49.728;9.228;2022-09-27T03:36:09;0.20;;;0.20;;
2896;SDS011;1458;49.728;9.228;2022-09-27T03:38:40;0.20;;;0.20;;
2896;SDS011;1458;49.728;9.228;2022-09-27T03:41:11;0.27;;;0.27;;
2896;SDS011;1458;49.728;9.228;2022-09-27T03:43:38;0.30;;;0.30;;
2896;SDS011;1458;49.728;9.228;2022-09-27T03:46:06;0.20;;;0.20;;
2896;SDS011;1458;49.728;9.228;2022-09-27T03:48:35;0.20;;;0.20;;
2896;SDS011;1458;49.728;9.228;2022-09-27T03:51:02;0.20;;;0.20;;
2896;SDS011;1458;49.728;9.228;2022-09-27T03:53:30;0.20;;;0.20;;
2896;SDS011;1458;49.728;9.228;2022-09-27T03:55:59;0.27;;;0.27;;
2896;SDS011;1458;49.728;9.228;2022-09-27T03:58:28;0.20;;;0.20;;
2896;SDS011;1458;49.728;9.228;2022-09-27T04:00:56;0.20;;;0.20;;
2896;SDS011;1458;49.728;9.228;2022-09-27T04:03:27;0.20;;;0.20;;
2896;SDS011;1458;49.728;9.228;2022-09-27T04:06:15;0.20;;;0.20;;
2896;SDS011;1458;49.728;9.228;2022-09-27T04:08:43;0.20;;;0.20;;
2896;SDS011;1458;49.728;9.228;2022-09-27T04:11:13;0.20;;;0.20;;
2896;SDS011;1458;49.728;9.228;2022-09-27T04:13:43;0.20;;;0.20;;
2896;SDS011;1458;49.728;9.228;2022-09-27T04:16:12;0.20;;;0.20;;
2896;SDS011;1458;49.728;9.228;2022-09-27T04:18:50;0.20;;;0.20;;
2896;SDS011;1458;49.728;9.228;2022-09-27T04:21:38;0.20;;;0.20;;
2896;SDS011;1458;49.728;9.228;2022-09-27T04:24:07;0.20;;;0.20;;
2896;SDS011;1458;49.728;9.228;2022-09-27T04:26:38;0.20;;;0.20;;
2896;SDS011;1458;49.728;9.228;2022-09-27T04:29:11;0.20;;;0.20;;
2896;SDS011;1458;49.728;9.228;2022-09-27T04:31:46;0.23;;;0.23;;
2896;SDS011;1458;49.728;9.228;2022-09-27T04:34:40;0.20;;;0.20;;
2896;SDS011;1458;49.728;9.228;2022-09-27T04:37:26;0.30;;;0.30;;
2896;SDS011;1458;49.728;9.228;2022-09-27T04:40:00;0.20;;;0.20;;
2896;SDS011;1458;49.728;9.228;2022-09-27T04:42:30;0.30;;;0.30;;
2896;SDS011;1458;49.728;9.228;2022-09-27T04:44:58;0.20;;;0.20;;
2896;SDS011;1458;49.728;9.228;2022-09-27T04:47:26;0.20;;;0.20;;
2896;SDS011;1458;49.728;9.228;2022-09-27T04:49:54;0.30;;;0.30;;
2896;SDS011;1458;49.728;9.228;2022-09-27T04:52:22;0.20;;;0.20;;
2896;SDS011;1458;49.728;9.228;2022-09-27T04:54:50;0.20;;;0.20;;
2896;SDS011;1458;49.728;9.228;2022-09-27T04:57:20;0.20;;;0.20;;
2896;SDS011;1458;49.728;9.228;2022-09-27T04:59:49;0.30;;;0.30;;
2896;SDS011;1458;49.728;9.228;2022-09-27T05:02:17;0.20;;;0.20;;
2896;SDS011;1458;49.728;9.228;2022-09-27T05:05:03;0.20;;;0.20;;
2896;SDS011;1458;49.728;9.228;2022-09-27T05:07:36;0.20;;;0.20;;
2896;SDS011;1458;49.728;9.228;2022-09-27T05:10:09;0.20;;;0.20;;
2896;SDS011;1458;49.728;9.228;2022-09-27T05:12:36;0.30;;;0.30;;
2896;SDS011;1458;49.728;9.228;2022-09-27T05:15:06;0.23;;;0.23;;
2896;SDS011;1458;49.728;9.228;2022-09-27T05:17:58;0.20;;;0.20;;
2896;SDS011;1458;49.728;9.228;2022-09-27T05:20:49;0.20;;;0.20;;
2896;SDS011;1458;49.728;9.228;2022-09-27T05:23:24;0.20;;;0.20;;
2896;SDS011;1458;49.728;9.228;2022-09-27T05:28:22;0.30;;;0.30;;
2896;SDS011;1458;49.728;9.228;2022-09-27T05:30:51;0.20;;;0.20;;
2896;SDS011;1458;49.728;9.228;2022-09-27T05:33:20;0.30;;;0.30;;
2896;SDS011;1458;49.728;9.228;2022-09-27T05:35:51;0.30;;;0.30;;
2896;SDS011;1458;49.728;9.228;2022-09-27T05:38:23;0.30;;;0.30;;
2896;SDS011;1458;49.728;9.228;2022-09-27T05:40:54;0.23;;;0.23;;
2896;SDS011;1458;49.728;9.228;2022-09-27T05:43:23;0.20;;;0.20;;
2896;SDS011;1458;49.728;9.228;2022-09-27T05:45:54;0.20;;;0.20;;
2896;SDS011;1458;49.728;9.228;2022-09-27T05:48:23;0.20;;;0.20;;
2896;SDS011;1458;49.728;9.228;2022-09-27T05:50:55;0.20;;;0.20;;
2896;SDS011;1458;49.728;9.228;2022-09-27T05:53:23;0.30;;;0.30;;
2896;SDS011;1458;49.728;9.228;2022-09-27T05:55:52;0.20;;;0.20;;
2896;SDS011;1458;49.728;9.228;2022-09-27T05:58:27;0.20;;;0.20;;
2896;SDS011;1458;49.728;9.228;2022-09-27T06:01:16;0.30;;;0.30;;
2896;SDS011;1458;49.728;9.228;2022-09-27T06:04:03;0.27;;;0.27;;
2896;SDS011;1458;49.728;9.228;2022-09-27T06:07:02;0.30;;;0.30;;
2896;SDS011;1458;49.728;9.228;2022-09-27T06:09:30;0.30;;;0.30;;
2896;SDS011;1458;49.728;9.228;2022-09-27T06:11:58;0.40;;;0.40;;
2896;SDS011;1458;49.728;9.228;2022-09-27T06:14:25;0.30;;;0.30;;
2896;SDS011;1458;49.728;9.228;2022-09-27T06:17:08;0.20;;;0.20;;
2896;SDS011;1458;49.728;9.228;2022-09-27T06:19:39;0.20;;;0.20;;
2896;SDS011;1458;49.728;9.228;2022-09-27T06:22:07;0.30;;;0.30;;
2896;SDS011;1458;49.728;9.228;2022-09-27T06:24:44;0.30;;;0.30;;
2896;SDS011;1458;49.728;9.228;2022-09-27T06:27:18;0.20;;;0.20;;
2896;SDS011;1458;49.728;9.228;2022-09-27T06:30:14;0.40;;;0.40;;
2896;SDS011;1458;49.728;9.228;2022-09-27T06:32:48;0.20;;;0.20;;
2896;SDS011;1458;49.728;9.228;2022-09-27T06:35:37;0.20;;;0.20;;
2896;SDS011;1458;49.728;9.228;2022-09-27T06:38:06;0.30;;;0.30;;
2896;SDS011;1458;49.728;9.228;2022-09-27T06:40:43;0.20;;;0.20;;
2896;SDS011;1458;49.728;9.228;2022-09-27T06:43:29;0.27;;;0.27;;
2896;SDS011;1458;49.728;9.228;2022-09-27T06:46:03;0.30;;;0.30;;
2896;SDS011;1458;49.728;9.228;2022-09-27T06:48:45;0.33;;;0.33;;
2896;SDS011;1458;49.728;9.228;2022-09-27T06:51:15;0.30;;;0.30;;
2896;SDS011;1458;49.728;9.228;2022-09-27T06:53:44;0.30;;;0.30;;
2896;SDS011;1458;49.728;9.228;2022-09-27T06:56:15;0.30;;;0.30;;
2896;SDS011;1458;49.728;9.228;2022-09-27T06:58:52;0.37;;;0.37;;
2896;SDS011;1458;49.728;9.228;2022-09-27T07:01:40;0.30;;;0.30;;
2896;SDS011;1458;49.728;9.228;2022-09-27T07:04:30;0.30;;;0.30;;
2896;SDS011;1458;49.728;9.228;2022-09-27T07:07:03;0.30;;;0.30;;
2896;SDS011;1458;49.728;9.228;2022-09-27T07:09:33;0.30;;;0.30;;
2896;SDS011;1458;49.728;9.228;2022-09-27T07:12:04;0.30;;;0.30;;
2896;SDS011;1458;49.728;9.228;2022-09-27T07:14:31;0.37;;;0.37;;
2896;SDS011;1458;49.728;9.228;2022-09-27T07:17:01;0.30;;;0.30;;
2896;SDS011;1458;49.728;9.228;2022-09-27T07:19:35;0.37;;;0.37;;
2896;SDS011;1458;49.728;9.228;2022-09-27T07:22:04;0.40;;;0.40;;
2896;SDS011;1458;49.728;9.228;2022-09-27T07:24:31;0.40;;;0.40;;
2896;SDS011;1458;49.728;9.228;2022-09-27T07:26:59;0.30;;;0.30;;
2896;SDS011;1458;49.728;9.228;2022-09-27T07:29:27;0.20;;;0.20;;
2896;SDS011;1458;49.728;9.228;2022-09-27T07:31:55;0.20;;;0.20;;
2896;SDS011;1458;49.728;9.228;2022-09-27T07:34:22;0.30;;;0.30;;
2896;SDS011;1458;49.728;9.228;2022-09-27T07:36:52;0.30;;;0.30;;
2896;SDS011;1458;49.728;9.228;2022-09-27T07:39:25;0.20;;;0.20;;
2896;SDS011;1458;49.728;9.228;2022-09-27T07:41:53;0.30;;;0.30;;
2896;SDS011;1458;49.728;9.228;2022-09-27T07:44:20;0.30;;;0.30;;
2896;SDS011;1458;49.728;9.228;2022-09-27T07:47:14;0.30;;;0.30;;
2896;SDS011;1458;49.728;9.228;2022-09-27T07:50:02;0.20;;;0.20;;
2896;SDS011;1458;49.728;9.228;2022-09-27T07:52:55;0.20;;;0.20;;
2896;SDS011;1458;49.728;9.228;2022-09-27T07:55:49;0.40;;;0.40;;
2896;SDS011;1458;49.728;9.228;2022-09-27T07:58:21;0.30;;;0.30;;
2896;SDS011;1458;49.728;9.228;2022-09-27T08:00:51;0.30;;;0.30;;
2896;SDS011;1458;49.728;9.228;2022-09-27T08:03:21;0.30;;;0.30;;
2896;SDS011;1458;49.728;9.228;2022-09-27T08:05:49;0.30;;;0.30;;
2896;SDS011;1458;49.728;9.228;2022-09-27T08:08:18;0.20;;;0.20;;
2896;SDS011;1458;49.728;9.228;2022-09-27T08:10:48;0.30;;;0.30;;
2896;SDS011;1458;49.728;9.228;2022-09-27T08:13:16;0.40;;;0.40;;
2896;SDS011;1458;49.728;9.228;2022-09-27T08:15:45;0.30;;;0.30;;
2896;SDS011;1458;49.728;9.228;2022-09-27T08:18:15;0.40;;;0.40;;
2896;SDS011;1458;49.728;9.228;2022-09-27T08:20:48;0.20;;;0.20;;
2896;SDS011;1458;49.728;9.228;2022-09-27T08:23:29;0.50;;;0.50;;
2896;SDS011;1458;49.728;9.228;2022-09-27T08:26:20;0.40;;;0.40;;
2896;SDS011;1458;49.728;9.228;2022-09-27T08:28:54;0.30;;;0.30;;
2896;SDS011;1458;49.728;9.228;2022-09-27T08:31:24;0.30;;;0.30;;
2896;SDS011;1458;49.728;9.228;2022-09-27T08:33:54;0.40;;;0.40;;
2896;SDS011;1458;49.728;9.228;2022-09-27T08:36:22;0.33;;;0.33;;
2896;SDS011;1458;49.728;9.228;2022-09-27T08:38:51;0.30;;;0.30;;
2896;SDS011;1458;49.728;9.228;2022-09-27T08:41:27;0.30;;;0.30;;
2896;SDS011;1458;49.728;9.228;2022-09-27T08:44:08;0.30;;;0.30;;
2896;SDS011;1458;49.728;9.228;2022-09-27T08:46:56;0.40;;;0.40;;
2896;SDS011;1458;49.728;9.228;2022-09-27T08:49:34;0.30;;;0.30;;
2896;SDS011;1458;49.728;9.228;2022-09-27T08:52:06;0.30;;;0.30;;
2896;SDS011;1458;49.728;9.228;2022-09-27T08:54:41;0.30;;;0.30;;
2896;SDS011;1458;49.728;9.228;2022-09-27T08:57:12;0.30;;;0.30;;
2896;SDS011;1458;49.728;9.228;2022-09-27T08:59:42;0.37;;;0.37;;
2896;SDS011;1458;49.728;9.228;2022-09-27T09:02:16;0.30;;;0.30;;
2896;SDS011;1458;49.728;9.228;2022-09-27T09:04:51;0.30;;;0.30;;
2896;SDS011;1458;49.728;9.228;2022-09-27T09:07:31;0.30;;;0.30;;
2896;SDS011;1458;49.728;9.228;2022-09-27T09:10:18;0.50;;;0.50;;
2896;SDS011;1458;49.728;9.228;2022-09-27T09:13:16;0.30;;;0.30;;
2896;SDS011;1458;49.728;9.228;2022-09-27T09:16:11;0.27;;;0.27;;
2896;SDS011;1458;49.728;9.228;2022-09-27T09:18:56;0.30;;;0.30;;
2896;SDS011;1458;49.728;9.228;2022-09-27T09:22:05;0.30;;;0.30;;
2896;SDS011;1458;49.728;9.228;2022-09-27T09:24:44;0.30;;;0.30;;
2896;SDS011;1458;49.728;9.228;2022-09-27T09:27:31;0.50;;;0.50;;
2896;SDS011;1458;49.728;9.228;2022-09-27T09:30:14;0.30;;;0.30;;
2896;SDS011;1458;49.728;9.228;2022-09-27T09:32:54;0.30;;;0.30;;
2896;SDS011;1458;49.728;9.228;2022-09-27T09:35:38;0.40;;;0.40;;
2896;SDS011;1458;49.728;9.228;2022-09-27T09:38:12;0.50;;;0.50;;
2896;SDS011;1458;49.728;9.228;2022-09-27T09:40:48;0.57;;;0.57;;
2896;SDS011;1458;49.728;9.228;2022-09-27T09:43:27;0.40;;;0.40;;
2896;SDS011;1458;49.728;9.228;2022-09-27T09:46:01;0.70;;;0.70;;
2896;SDS011;1458;49.728;9.228;2022-09-27T09:48:35;0.80;;;0.80;;
2896;SDS011;1458;49.728;9.228;2022-09-27T09:51:10;0.60;;;0.60;;
2896;SDS011;1458;49.728;9.228;2022-09-27T09:53:44;0.57;;;0.57;;
2896;SDS011;1458;49.728;9.228;2022-09-27T09:56:25;0.67;;;0.67;;
2896;SDS011;1458;49.728;9.228;2022-09-27T09:58:59;0.50;;;0.50;;
2896;SDS011;1458;49.728;9.228;2022-09-27T10:01:39;0.50;;;0.50;;
2896;SDS011;1458;49.728;9.228;2022-09-27T10:04:08;0.60;;;0.60;;
2896;SDS011;1458;49.728;9.228;2022-09-27T10:06:43;0.67;;;0.67;;
2896;SDS011;1458;49.728;9.228;2022-09-27T10:09:11;0.60;;;0.60;;
2896;SDS011;1458;49.728;9.228;2022-09-27T10:12:03;0.60;;;0.60;;
2896;SDS011;1458;49.728;9.228;2022-09-27T10:14:35;0.43;;;0.43;;
2896;SDS011;1458;49.728;9.228;2022-09-27T10:17:05;0.40;;;0.40;;
2896;SDS011;1458;49.728;9.228;2022-09-27T10:19:40;0.30;;;0.30;;
2896;SDS011;1458;49.728;9.228;2022-09-27T10:22:10;0.30;;;0.30;;
2896;SDS011;1458;49.728;9.228;2022-09-27T10:24:52;0.30;;;0.30;;
2896;SDS011;1458;49.728;9.228;2022-09-27T10:27:43;0.37;;;0.37;;
2896;SDS011;1458;49.728;9.228;2022-09-27T10:30:23;0.40;;;0.40;;
2896;SDS011;1458;49.728;9.228;2022-09-27T10:32:55;0.40;;;0.40;;
2896;SDS011;1458;49.728;9.228;2022-09-27T10:35:43;0.30;;;0.30;;
2896;SDS011;1458;49.728;9.228;2022-09-27T10:38:40;0.30;;;0.30;;
2896;SDS011;1458;49.728;9.228;2022-09-27T10:41:33;0.30;;;0.30;;
2896;SDS011;1458;49.728;9.228;2022-09-27T10:44:18;0.40;;;0.40;;
2896;SDS011;1458;49.728;9.228;2022-09-27T10:47:17;0.30;;;0.30;;
2896;SDS011;1458;49.728;9.228;2022-09-27T10:50:14;0.40;;;0.40;;
2896;SDS011;1458;49.728;9.228;2022-09-27T10:53:04;0.30;;;0.30;;
2896;SDS011;1458;49.728;9.228;2022-09-27T10:55:41;0.30;;;0.30;;
2896;SDS011;1458;49.728;9.228;2022-09-27T10:58:15;0.30;;;0.30;;
2896;SDS011;1458;49.728;9.228;2022-09-27T11:00:53;0.40;;;0.40;;
2896;SDS011;1458;49.728;9.228;2022-09-27T11:03:24;0.43;;;0.43;;
2896;SDS011;1458;49.728;9.228;2022-09-27T11:05:54;0.40;;;0.40;;
2896;SDS011;1458;49.728;9.228;2022-09-27T11:08:29;0.40;;;0.40;;
2896;SDS011;1458;49.728;9.228;2022-09-27T11:11:14;0.40;;;0.40;;
2896;SDS011;1458;49.728;9.228;2022-09-27T11:13:59;0.30;;;0.30;;
2896;SDS011;1458;49.728;9.228;2022-09-27T11:19:35;0.47;;;0.47;;
2896;SDS011;1458;49.728;9.228;2022-09-27T11:22:43;0.50;;;0.50;;
2896;SDS011;1458;49.728;9.228;2022-09-27T11:25:55;0.30;;;0.30;;
2896;SDS011;1458;49.728;9.228;2022-09-27T11:28:39;0.43;;;0.43;;
2896;SDS011;1458;49.728;9.228;2022-09-27T11:31:47;0.30;;;0.30;;
2896;SDS011;1458;49.728;9.228;2022-09-27T11:34:35;0.23;;;0.23;;
2896;SDS011;1458;49.728;9.228;2022-09-27T11:37:29;0.20;;;0.20;;
2896;SDS011;1458;49.728;9.228;2022-09-27T11:40:11;0.30;;;0.30;;
2896;SDS011;1458;49.728;9.228;2022-09-27T11:46:05;0.27;;;0.27;;
2896;SDS011;1458;49.728;9.228;2022-09-27T11:48:48;0.30;;;0.30;;
2896;SDS011;1458;49.728;9.228;2022-09-27T11:51:46;0.40;;;0.40;;
2896;SDS011;1458;49.728;9.228;2022-09-27T11:54:42;0.40;;;0.40;;
2896;SDS011;1458;49.728;9.228;2022-09-27T11:57:31;0.30;;;0.30;;
2896;SDS011;1458;49.728;9.228;2022-09-27T12:00:13;0.30;;;0.30;;
2896;SDS011;1458;49.728;9.228;2022-09-27T12:03:12;0.40;;;0.40;;
2896;SDS011;1458;49.728;9.228;2022-09-27T12:06:06;0.40;;;0.40;;
2896;SDS011;1458;49.728;9.228;2022-09-27T12:08:47;0.40;;;0.40;;
2896;SDS011;1458;49.728;9.228;2022-09-27T12:11:25;0.50;;;0.50;;
2896;SDS011;1458;49.728;9.228;2022-09-27T12:13:57;0.40;;;0.40;;
2896;SDS011;1458;49.728;9.228;2022-09-27T12:16:29;0.67;;;0.67;;
2896;SDS011;1458;49.728;9.228;2022-09-27T12:18:58;0.63;;;0.63;;
2896;SDS011;1458;49.728;9.228;2022-09-27T12:21:44;0.60;;;0.60;;
2896;SDS011;1458;49.728;9.228;2022-09-27T12:24:17;0.60;;;0.60;;
2896;SDS011;1458;49.728;9.228;2022-09-27T12:27:18;0.50;;;0.50;;
2896;SDS011;1458;49.728;9.228;2022-09-27T12:29:58;0.77;;;0.77;;
2896;SDS011;1458;49.728;9.228;2022-09-27T12:32:29;0.60;;;0.60;;
2896;SDS011;1458;49.728;9.228;2022-09-27T12:35:04;0.50;;;0.50;;
2896;SDS011;1458;49.728;9.228;2022-09-27T12:37:41;0.80;;;0.80;;
2896;SDS011;1458;49.728;9.228;2022-09-27T12:40:16;0.60;;;0.60;;
2896;SDS011;1458;49.728;9.228;2022-09-27T12:42:52;0.80;;;0.80;;
2896;SDS011;1458;49.728;9.228;2022-09-27T12:45:37;0.90;;;0.90;;
2896;SDS011;1458;49.728;9.228;2022-09-27T12:48:15;0.70;;;0.70;;
2896;SDS011;1458;49.728;9.228;2022-09-27T12:50:52;0.70;;;0.70;;
2896;SDS011;1458;49.728;9.228;2022-09-27T12:53:25;0.73;;;0.73;;
2896;SDS011;1458;49.728;9.228;2022-09-27T12:56:05;0.70;;;0.70;;
2896;SDS011;1458;49.728;9.228;2022-09-27T12:58:57;0.70;;;0.70;;
2896;SDS011;1458;49.728;9.228;2022-09-27T13:01:50;0.80;;;0.80;;
2896;SDS011;1458;49.728;9.228;2022-09-27T13:04:54;0.83;;;0.83;;
2896;SDS011;1458;49.728;9.228;2022-09-27T13:08:08;1.10;;;1.10;;
2896;SDS011;1458;49.728;9.228;2022-09-27T13:10:54;1.27;;;1.27;;
2896;SDS011;1458;49.728;9.228;2022-09-27T13:13:34;1.23;;;1.23;;
2896;SDS011;1458;49.728;9.228;2022-09-27T13:16:06;1.00;;;1.00;;
2896;SDS011;1458;49.728;9.228;2022-09-27T13:18:50;1.20;;;1.20;;
2896;SDS011;1458;49.728;9.228;2022-09-27T13:24:40;1.00;;;1.00;;
2896;SDS011;1458;49.728;9.228;2022-09-27T13:27:43;1.20;;;1.20;;
2896;SDS011;1458;49.728;9.228;2022-09-27T13:33:29;1.43;;;1.43;;
2896;SDS011;1458;49.728;9.228;2022-09-27T13:39:14;1.50;;;1.50;;
2896;SDS011;1458;49.728;9.228;2022-09-27T13:42:14;1.30;;;1.30;;
2896;SDS011;1458;49.728;9.228;2022-09-27T13:45:05;1.40;;;1.40;;
2896;SDS011;1458;49.728;9.228;2022-09-27T13:47:47;1.20;;;1.20;;
2896;SDS011;1458;49.728;9.228;2022-09-27T13:50:25;1.50;;;1.50;;
2896;SDS011;1458;49.728;9.228;2022-09-27T13:53:06;1.57;;;1.57;;
2896;SDS011;1458;49.728;9.228;2022-09-27T13:55:48;1.60;;;1.60;;
2896;SDS011;1458;49.728;9.228;2022-09-27T13:58:34;1.50;;;1.50;;
2896;SDS011;1458;49.728;9.228;2022-09-27T14:01:42;1.87;;;1.87;;
2896;SDS011;1458;49.728;9.228;2022-09-27T14:04:21;1.90;;;1.90;;
2896;SDS011;1458;49.728;9.228;2022-09-27T14:06:54;1.70;;;1.70;;
2896;SDS011;1458;49.728;9.228;2022-09-27T14:09:26;1.60;;;1.60;;
2896;SDS011;1458;49.728;9.228;2022-09-27T14:12:05;1.90;;;1.90;;
2896;SDS011;1458;49.728;9.228;2022-09-27T14:14:37;1.63;;;1.63;;
2896;SDS011;1458;49.728;9.228;2022-09-27T14:17:10;1.40;;;1.40;;
2896;SDS011;1458;49.728;9.228;2022-09-27T14:19:41;1.40;;;1.40;;
2896;SDS011;1458;49.728;9.228;2022-09-27T14:22:13;1.50;;;1.50;;
2896;SDS011;1458;49.728;9.228;2022-09-27T14:24:51;1.53;;;1.53;;
2896;SDS011;1458;49.728;9.228;2022-09-27T14:27:35;1.40;;;1.40;;
2896;SDS011;1458;49.728;9.228;2022-09-27T14:30:33;1.40;;;1.40;;
2896;SDS011;1458;49.728;9.228;2022-09-27T14:33:27;0.90;;;0.90;;
2896;SDS011;1458;49.728;9.228;2022-09-27T14:36:07;0.80;;;0.80;;
2896;SDS011;1458;49.728;9.228;2022-09-27T14:39:11;0.50;;;0.50;;
2896;SDS011;1458;49.728;9.228;2022-09-27T14:41:44;0.40;;;0.40;;
2896;SDS011;1458;49.728;9.228;2022-09-27T14:44:13;0.40;;;0.40;;
2896;SDS011;1458;49.728;9.228;2022-09-27T14:46:44;0.50;;;0.50;;
2896;SDS011;1458;49.728;9.228;2022-09-27T14:49:20;0.40;;;0.40;;
2896;SDS011;1458;49.728;9.228;2022-09-27T14:51:49;0.40;;;0.40;;
2896;SDS011;1458;49.728;9.228;2022-09-27T14:54:21;0.50;;;0.50;;
2896;SDS011;1458;49.728;9.228;2022-09-27T14:56:51;0.60;;;0.60;;
2896;SDS011;1458;49.728;9.228;2022-09-27T14:59:23;0.60;;;0.60;;
2896;SDS011;1458;49.728;9.228;2022-09-27T15:01:55;0.40;;;0.40;;
2896;SDS011;1458;49.728;9.228;2022-09-27T15:04:28;0.60;;;0.60;;
2896;SDS011;1458;49.728;9.228;2022-09-27T15:06:57;0.63;;;0.63;;
2896;SDS011;1458;49.728;9.228;2022-09-27T15:09:27;0.70;;;0.70;;
2896;SDS011;1458;49.728;9.228;2022-09-27T15:11:57;0.77;;;0.77;;
2896;SDS011;1458;49.728;9.228;2022-09-27T15:14:26;0.60;;;0.60;;
2896;SDS011;1458;49.728;9.228;2022-09-27T15:16:57;0.80;;;0.80;;
2896;SDS011;1458;49.728;9.228;2022-09-27T15:19:31;0.67;;;0.67;;
2896;SDS011;1458;49.728;9.228;2022-09-27T15:24:49;0.50;;;0.50;;
2896;SDS011;1458;49.728;9.228;2022-09-27T15:27:17;0.57;;;0.57;;
2896;SDS011;1458;49.728;9.228;2022-09-27T15:29:48;0.57;;;0.57;;
2896;SDS011;1458;49.728;9.228;2022-09-27T15:32:18;0.60;;;0.60;;
2896;SDS011;1458;49.728;9.228;2022-09-27T15:34:49;0.60;;;0.60;;
2896;SDS011;1458;49.728;9.228;2022-09-27T15:37:25;0.70;;;0.70;;
2896;SDS011;1458;49.728;9.228;2022-09-27T15:39:54;0.70;;;0.70;;
2896;SDS011;1458;49.728;9.228;2022-09-27T15:42:53;0.60;;;0.60;;
2896;SDS011;1458;49.728;9.228;2022-09-27T15:45:26;0.70;;;0.70;;
2896;SDS011;1458;49.728;9.228;2022-09-27T15:47:55;0.60;;;0.60;;
2896;SDS011;1458;49.728;9.228;2022-09-27T15:50:37;0.60;;;0.60;;
2896;SDS011;1458;49.728;9.228;2022-09-27T15:53:05;0.50;;;0.50;;
2896;SDS011;1458;49.728;9.228;2022-09-27T15:55:34;0.53;;;0.53;;
2896;SDS011;1458;49.728;9.228;2022-09-27T15:58:07;0.50;;;0.50;;
2896;SDS011;1458;49.728;9.228;2022-09-27T16:00:49;0.50;;;0.50;;
2896;SDS011;1458;49.728;9.228;2022-09-27T16:03:18;0.50;;;0.50;;
2896;SDS011;1458;49.728;9.228;2022-09-27T16:05:47;0.60;;;0.60;;
2896;SDS011;1458;49.728;9.228;2022-09-27T16:08:15;0.70;;;0.70;;
2896;SDS011;1458;49.728;9.228;2022-09-27T16:10:43;0.70;;;0.70;;
2896;SDS011;1458;49.728;9.228;2022-09-27T16:13:14;0.70;;;0.70;;
2896;SDS011;1458;49.728;9.228;2022-09-27T16:15:41;0.60;;;0.60;;
2896;SDS011;1458;49.728;9.228;2022-09-27T16:18:10;0.60;;;0.60;;
2896;SDS011;1458;49.728;9.228;2022-09-27T16:20:37;0.80;;;0.80;;
2896;SDS011;1458;49.728;9.228;2022-09-27T16:23:06;0.70;;;0.70;;
2896;SDS011;1458;49.728;9.228;2022-09-27T16:25:33;0.60;;;0.60;;
2896;SDS011;1458;49.728;9.228;2022-09-27T16:28:02;0.60;;;0.60;;
2896;SDS011;1458;49.728;9.228;2022-09-27T16:30:31;0.70;;;0.70;;
2896;SDS011;1458;49.728;9.228;2022-09-27T16:32:58;0.63;;;0.63;;
2896;SDS011;1458;49.728;9.228;2022-09-27T16:35:26;0.60;;;0.60;;
2896;SDS011;1458;49.728;9.228;2022-09-27T16:37:54;0.60;;;0.60;;
2896;SDS011;1458;49.728;9.228;2022-09-27T16:40:23;0.50;;;0.50;;
2896;SDS011;1458;49.728;9.228;2022-09-27T16:42:52;0.53;;;0.53;;